createdAt,value
2019-05-18T00:02:25.214Z,14.50
2019-05-18T00:04:54.861Z,14.50
2019-05-18T00:07:24.524Z,14.60
2019-05-18T00:09:54.201Z,14.60
2019-05-18T00:12:23.870Z,14.60
2019-05-18T00:14:53.524Z,14.60
2019-05-18T00:17:25.303Z,14.60
2019-05-18T00:19:54.509Z,14.60
2019-05-18T00:22:24.228Z,14.60
2019-05-18T00:24:53.865Z,14.50
2019-05-18T00:27:23.508Z,14.50
2019-05-18T00:29:53.127Z,14.50
2019-05-18T00:32:22.730Z,14.50
2019-05-18T00:34:52.380Z,14.50
2019-05-18T00:37:22.008Z,14.50
2019-05-18T00:40:10.753Z,14.50
2019-05-18T00:42:40.564Z,14.50
2019-05-18T00:45:10.431Z,14.50
2019-05-18T00:47:41.761Z,14.40
2019-05-18T00:50:11.844Z,14.40
2019-05-18T00:52:41.602Z,14.40
2019-05-18T00:55:11.408Z,14.30
2019-05-18T00:57:41.023Z,14.30
2019-05-18T01:00:11.371Z,14.30
2019-05-18T01:02:41.059Z,14.30
2019-05-18T01:05:11.025Z,14.30
2019-05-18T01:07:40.669Z,14.30
2019-05-18T01:10:10.654Z,14.30
2019-05-18T01:12:40.332Z,14.20
2019-05-18T01:15:10.488Z,14.20
2019-05-18T01:17:40.158Z,14.20
2019-05-18T01:20:10.236Z,14.20
2019-05-18T01:22:39.912Z,14.20
2019-05-18T01:25:09.802Z,14.20
2019-05-18T01:27:41.101Z,14.20
2019-05-18T01:30:13.041Z,14.10
2019-05-18T01:32:42.787Z,14.10
2019-05-18T01:35:13.999Z,14.10
2019-05-18T01:37:43.672Z,14.10
2019-05-18T01:40:13.499Z,14.10
2019-05-18T01:42:43.137Z,14.10
2019-05-18T01:45:17.325Z,14.10
2019-05-18T01:47:45.688Z,14.10
2019-05-18T01:50:15.519Z,14.00
2019-05-18T01:52:45.105Z,13.90
2019-05-18T01:55:14.917Z,13.90
2019-05-18T01:57:44.614Z,13.80
2019-05-18T02:00:14.402Z,13.80
2019-05-18T02:02:43.985Z,13.70
2019-05-18T02:05:14.033Z,13.60
2019-05-18T02:07:43.705Z,13.60
2019-05-18T02:10:13.580Z,13.60
2019-05-18T02:12:43.252Z,13.50
2019-05-18T02:15:12.983Z,13.50
2019-05-18T02:17:42.687Z,13.50
2019-05-18T02:20:12.969Z,13.50
2019-05-18T02:22:42.643Z,13.50
2019-05-18T02:25:31.401Z,13.60
2019-05-18T02:28:01.096Z,13.60
2019-05-18T02:30:30.688Z,13.60
2019-05-18T02:33:00.328Z,13.70
2019-05-18T02:35:48.989Z,13.70
2019-05-18T02:38:21.147Z,13.70
2019-05-18T02:40:50.858Z,13.70
2019-05-18T02:43:20.507Z,13.70
2019-05-18T02:45:50.165Z,13.70
2019-05-18T02:48:19.793Z,13.70
2019-05-18T02:50:49.500Z,13.70
2019-05-18T02:53:19.136Z,13.70
2019-05-18T02:55:48.800Z,13.60
2019-05-18T02:58:18.453Z,13.70
2019-05-18T03:00:48.202Z,13.70
2019-05-18T03:03:17.809Z,13.70
2019-05-18T03:05:50.478Z,13.60
2019-05-18T03:08:20.118Z,13.70
2019-05-18T03:10:49.750Z,13.70
2019-05-18T03:13:19.405Z,13.70
2019-05-18T03:15:49.111Z,13.80
2019-05-18T03:18:18.731Z,13.80
2019-05-18T03:20:48.369Z,13.80
2019-05-18T03:23:17.994Z,13.80
2019-05-18T03:25:47.646Z,13.90
2019-05-18T03:28:17.249Z,13.90
2019-05-18T03:30:46.956Z,14.00
2019-05-18T03:33:16.674Z,14.00
2019-05-18T03:35:46.374Z,14.10
2019-05-18T03:38:16.119Z,14.10
2019-05-18T03:40:45.810Z,14.00
2019-05-18T03:43:15.500Z,14.00
2019-05-18T03:45:45.128Z,13.90
2019-05-18T03:48:14.856Z,14.00
2019-05-18T03:50:44.688Z,13.90
2019-05-18T03:53:18.022Z,14.00
2019-05-18T03:55:45.627Z,14.00
2019-05-18T03:58:15.283Z,14.00
2019-05-18T04:00:45.303Z,14.00
2019-05-18T04:03:14.940Z,14.10
2019-05-18T04:05:44.605Z,14.10
2019-05-18T04:08:14.287Z,14.10
2019-05-18T04:10:44.052Z,14.20
2019-05-18T04:13:13.721Z,14.20
2019-05-18T04:15:43.443Z,14.20
2019-05-18T04:18:13.061Z,14.20
2019-05-18T04:20:42.718Z,14.20
2019-05-18T04:23:12.436Z,14.20
2019-05-18T04:25:43.856Z,14.20
2019-05-18T04:28:14.856Z,14.20
2019-05-18T04:30:44.723Z,14.20
2019-05-18T04:33:15.517Z,14.30
2019-05-18T04:35:45.291Z,14.20
2019-05-18T04:38:33.931Z,14.20
2019-05-18T04:41:03.650Z,14.10
2019-05-18T04:43:33.265Z,14.10
2019-05-18T04:46:02.948Z,14.10
2019-05-18T04:48:32.624Z,14.10
2019-05-18T04:51:21.280Z,14.10
2019-05-18T04:53:50.982Z,14.10
2019-05-18T04:56:21.867Z,14.20
2019-05-18T04:58:54.388Z,14.20
2019-05-18T05:01:24.074Z,14.30
2019-05-18T05:03:53.833Z,14.30
2019-05-18T05:06:23.519Z,14.40
2019-05-18T05:08:53.246Z,14.50
2019-05-18T05:11:22.954Z,14.50
2019-05-18T05:13:52.614Z,14.60
2019-05-18T05:16:22.309Z,14.60
2019-05-18T05:18:51.942Z,14.70
2019-05-18T05:21:21.627Z,14.80
2019-05-18T05:23:51.315Z,14.90
2019-05-18T05:26:21.048Z,15.00
2019-05-18T05:28:50.731Z,15.00
2019-05-18T05:31:20.393Z,15.10
2019-05-18T05:33:50.204Z,15.30
2019-05-18T05:36:19.916Z,15.30
2019-05-18T05:38:49.627Z,15.40
2019-05-18T05:41:38.310Z,15.50
2019-05-18T05:44:08.075Z,15.60
2019-05-18T05:46:37.764Z,15.70
2019-05-18T05:49:07.514Z,15.70
2019-05-18T05:51:37.185Z,15.80
2019-05-18T05:54:06.894Z,15.90
2019-05-18T05:56:36.619Z,15.90
2019-05-18T05:59:06.268Z,16.00
2019-05-18T06:01:35.927Z,16.10
2019-05-18T06:04:05.687Z,16.10
2019-05-18T06:06:35.400Z,16.20
2019-05-18T06:09:09.785Z,16.30
2019-05-18T06:11:39.461Z,16.30
2019-05-18T06:14:09.172Z,16.30
2019-05-18T06:16:38.822Z,16.30
2019-05-18T06:19:08.535Z,16.40
2019-05-18T06:21:38.260Z,16.50
2019-05-18T06:24:07.966Z,16.50
2019-05-18T06:26:37.696Z,16.50
2019-05-18T06:29:07.791Z,16.60
2019-05-18T06:31:37.348Z,16.60
2019-05-18T06:34:07.034Z,16.70
2019-05-18T06:36:37.710Z,16.80
2019-05-18T06:39:08.634Z,16.90
2019-05-18T06:41:41.851Z,16.90
2019-05-18T06:44:11.840Z,17.00
2019-05-18T06:46:44.081Z,17.10
2019-05-18T06:49:14.040Z,17.10
2019-05-18T06:51:43.811Z,17.30
2019-05-18T06:54:13.532Z,17.30
2019-05-18T06:56:44.210Z,17.40
2019-05-18T06:59:18.882Z,17.40
2019-05-18T07:01:48.538Z,17.50
2019-05-18T07:04:18.282Z,17.50
2019-05-18T07:06:47.946Z,17.50
2019-05-18T07:09:19.388Z,17.50
2019-05-18T07:11:49.042Z,17.60
2019-05-18T07:14:25.756Z,17.60
2019-05-18T07:16:50.251Z,17.60
2019-05-18T07:19:19.924Z,17.60
2019-05-18T07:21:49.629Z,17.60
2019-05-18T07:24:21.007Z,17.70
2019-05-18T07:26:50.759Z,17.70
2019-05-18T07:29:20.443Z,17.70
2019-05-18T07:31:50.181Z,17.70
2019-05-18T07:34:19.832Z,17.70
2019-05-18T07:36:49.474Z,17.70
2019-05-18T07:39:19.117Z,17.70
2019-05-18T07:41:48.824Z,17.60
2019-05-18T07:44:18.485Z,17.60
2019-05-18T07:46:48.124Z,17.50
2019-05-18T07:49:17.796Z,17.40
2019-05-18T07:51:47.483Z,17.40
2019-05-18T07:54:17.158Z,17.30
2019-05-18T07:56:46.775Z,17.20
2019-05-18T07:59:19.341Z,17.20
2019-05-18T08:01:47.819Z,17.30
2019-05-18T08:04:17.447Z,17.30
2019-05-18T08:06:47.118Z,17.30
2019-05-18T08:09:16.808Z,17.40
2019-05-18T08:11:46.486Z,17.50
2019-05-18T08:14:16.275Z,17.50
2019-05-18T08:16:45.870Z,17.60
2019-05-18T08:19:15.618Z,17.60
2019-05-18T08:21:53.146Z,17.60
2019-05-18T08:24:16.536Z,17.60
2019-05-18T08:26:46.215Z,17.70
2019-05-18T08:29:15.846Z,17.70
2019-05-18T08:31:45.517Z,17.80
2019-05-18T08:34:34.222Z,18.00
2019-05-18T08:37:03.829Z,18.10
2019-05-18T08:39:33.512Z,18.30
2019-05-18T08:42:03.245Z,18.30
2019-05-18T08:44:32.990Z,18.50
2019-05-18T08:47:03.112Z,18.60
2019-05-18T08:49:32.771Z,18.70
2019-05-18T08:52:08.509Z,18.80
2019-05-18T08:54:33.704Z,19.00
2019-05-18T08:57:05.058Z,19.10
2019-05-18T08:59:34.673Z,19.20
2019-05-18T09:02:05.424Z,19.30
2019-05-18T09:04:54.223Z,19.40
2019-05-18T09:07:23.883Z,19.50
2019-05-18T09:09:53.715Z,19.60
2019-05-18T09:12:23.330Z,19.70
2019-05-18T09:14:52.945Z,19.80
2019-05-18T09:17:22.705Z,19.90
2019-05-18T09:19:52.399Z,19.90
2019-05-18T09:22:23.384Z,20.00
2019-05-18T09:24:53.297Z,20.10
2019-05-18T09:27:22.980Z,20.10
2019-05-18T09:29:52.928Z,20.20
2019-05-18T09:32:22.597Z,20.30
2019-05-18T09:34:52.601Z,20.40
2019-05-18T09:37:22.240Z,20.50
2019-05-18T09:39:52.144Z,20.50
2019-05-18T09:42:21.835Z,20.60
2019-05-18T09:44:51.520Z,20.70
2019-05-18T09:47:21.231Z,20.80
2019-05-18T09:49:51.005Z,20.80
2019-05-18T09:52:20.796Z,20.80
2019-05-18T09:54:51.642Z,20.80
2019-05-18T09:57:21.298Z,20.80
2019-05-18T09:59:51.025Z,20.80
2019-05-18T10:02:22.128Z,20.90
2019-05-18T10:04:51.871Z,20.90
2019-05-18T10:07:24.562Z,21.00
2019-05-18T10:09:54.266Z,21.00
2019-05-18T10:12:24.839Z,21.10
2019-05-18T10:14:54.726Z,21.10
2019-05-18T10:17:43.407Z,21.20
2019-05-18T10:20:13.533Z,21.20
2019-05-18T10:22:55.042Z,21.30
2019-05-18T10:25:14.809Z,21.20
2019-05-18T10:27:44.457Z,21.30
2019-05-18T10:30:14.467Z,21.20
2019-05-18T10:32:44.189Z,21.20
2019-05-18T10:35:15.952Z,21.30
2019-05-18T10:37:57.606Z,21.30
2019-05-18T10:40:27.352Z,21.30
2019-05-18T10:42:56.993Z,21.30
2019-05-18T10:45:26.637Z,21.30
2019-05-18T10:47:56.347Z,21.30
2019-05-18T10:50:25.928Z,21.30
2019-05-18T10:52:55.545Z,21.30
2019-05-18T10:55:25.239Z,21.40
2019-05-18T10:57:54.916Z,21.40
2019-05-18T11:00:24.829Z,21.50
2019-05-18T11:02:54.544Z,21.50
2019-05-18T11:05:24.266Z,21.50
2019-05-18T11:07:53.959Z,21.60
2019-05-18T11:10:23.939Z,21.60
2019-05-18T11:12:53.554Z,21.70
2019-05-18T11:15:23.511Z,21.70
2019-05-18T11:17:53.187Z,21.80
2019-05-18T11:20:22.934Z,21.80
2019-05-18T11:22:52.728Z,21.80
2019-05-18T11:25:22.457Z,21.90
2019-05-18T11:27:52.142Z,22.00
2019-05-18T11:30:23.288Z,22.00
2019-05-18T11:32:54.761Z,22.10
2019-05-18T11:35:24.689Z,22.20
2019-05-18T11:37:54.387Z,22.40
2019-05-18T11:40:43.044Z,22.50
2019-05-18T11:43:12.815Z,22.70
2019-05-18T11:45:42.427Z,22.80
2019-05-18T11:48:12.169Z,22.90
2019-05-18T11:50:41.806Z,22.90
2019-05-18T11:53:11.470Z,22.90
2019-05-18T11:55:41.111Z,23.00
2019-05-18T11:58:10.744Z,23.10
2019-05-18T12:00:40.425Z,23.10
2019-05-18T12:03:10.055Z,23.20
2019-05-18T12:05:39.752Z,23.20
2019-05-18T12:08:09.496Z,23.30
2019-05-18T12:10:39.258Z,23.30
2019-05-18T12:13:08.889Z,23.40
2019-05-18T12:15:38.585Z,23.40
2019-05-18T12:18:08.204Z,23.40
2019-05-18T12:20:37.843Z,23.50
2019-05-18T12:23:08.485Z,23.50
2019-05-18T12:25:38.607Z,23.60
2019-05-18T12:28:08.395Z,23.70
2019-05-18T12:30:38.189Z,23.80
2019-05-18T12:33:07.869Z,23.80
2019-05-18T12:35:37.567Z,23.80
2019-05-18T12:38:07.207Z,23.80
2019-05-18T12:40:36.915Z,23.80
2019-05-18T12:43:09.918Z,23.80
2019-05-18T12:45:39.647Z,23.70
2019-05-18T12:48:09.481Z,23.70
2019-05-18T12:50:41.825Z,23.70
2019-05-18T12:53:11.474Z,23.70
2019-05-18T12:55:41.113Z,23.60
2019-05-18T12:58:10.751Z,23.70
2019-05-18T13:00:40.382Z,23.70
2019-05-18T13:03:09.996Z,23.70
2019-05-18T13:05:39.734Z,23.70
2019-05-18T13:08:09.409Z,23.80
2019-05-18T13:10:39.225Z,23.90
2019-05-18T13:13:08.890Z,24.00
2019-05-18T13:15:38.589Z,24.10
2019-05-18T13:18:08.345Z,24.10
2019-05-18T13:20:37.955Z,24.30
2019-05-18T13:23:07.601Z,24.90
2019-05-18T13:25:37.256Z,25.70
2019-05-18T13:28:06.877Z,26.60
2019-05-18T13:30:36.555Z,27.50
2019-05-18T13:33:06.190Z,28.40
2019-05-18T13:35:35.812Z,29.30
2019-05-18T13:38:05.489Z,29.90
2019-05-18T13:40:35.093Z,30.00
2019-05-18T13:43:04.692Z,30.10
2019-05-18T13:45:34.377Z,30.40
2019-05-18T13:48:04.024Z,30.70
2019-05-18T13:50:33.645Z,31.30
2019-05-18T13:53:03.313Z,31.80
2019-05-18T13:55:32.928Z,32.20
2019-05-18T13:58:02.553Z,32.50
2019-05-18T14:00:32.213Z,32.80
2019-05-18T14:03:01.991Z,33.00
2019-05-18T14:05:31.650Z,33.30
2019-05-18T14:08:01.302Z,33.50
2019-05-18T14:10:30.963Z,33.40
2019-05-18T14:13:00.752Z,33.10
2019-05-18T14:15:30.349Z,32.70
2019-05-18T14:17:59.959Z,32.40
2019-05-18T14:20:29.574Z,32.20
2019-05-18T14:22:59.228Z,32.20
2019-05-18T14:25:28.820Z,32.50
2019-05-18T14:27:58.450Z,32.50
2019-05-18T14:30:28.132Z,32.10
2019-05-18T14:32:57.788Z,32.00
2019-05-18T14:35:27.415Z,32.00
2019-05-18T14:37:57.052Z,31.90
2019-05-18T14:40:26.709Z,31.50
2019-05-18T14:42:56.443Z,30.80
2019-05-18T14:45:26.216Z,30.40
2019-05-18T14:47:55.862Z,30.00
2019-05-18T14:50:25.585Z,29.50
2019-05-18T14:52:55.248Z,29.10
2019-05-18T14:55:33.400Z,28.60
2019-05-18T14:57:56.157Z,28.20
2019-05-18T15:00:25.879Z,27.70
2019-05-18T15:02:55.497Z,27.40
2019-05-18T15:05:25.185Z,27.10
2019-05-18T15:07:54.776Z,26.80
2019-05-18T15:10:24.390Z,26.50
2019-05-18T15:12:54.056Z,26.50
2019-05-18T15:15:23.689Z,26.50
2019-05-18T15:17:53.287Z,26.40
2019-05-18T15:20:41.927Z,26.40
2019-05-18T15:23:11.608Z,26.50
2019-05-18T15:25:50.101Z,27.10
2019-05-18T15:28:12.497Z,27.60
2019-05-18T15:30:42.117Z,28.00
2019-05-18T15:33:11.782Z,28.10
2019-05-18T15:35:41.525Z,27.90
2019-05-18T15:38:11.175Z,27.60
2019-05-18T15:40:40.778Z,27.30
2019-05-18T15:43:10.419Z,27.20
2019-05-18T15:45:40.272Z,27.40
2019-05-18T15:48:10.364Z,27.60
2019-05-18T15:50:40.037Z,27.90
2019-05-18T15:53:09.769Z,28.10
2019-05-18T15:55:39.537Z,28.00
2019-05-18T15:58:09.147Z,27.90
2019-05-18T16:00:38.903Z,27.70
2019-05-18T16:03:08.743Z,27.60
2019-05-18T16:05:38.524Z,27.70
2019-05-18T16:08:08.273Z,27.70
2019-05-18T16:10:37.916Z,27.90
2019-05-18T16:13:07.586Z,28.20
2019-05-18T16:15:37.204Z,28.50
2019-05-18T16:18:06.926Z,28.70
2019-05-18T16:20:36.620Z,28.70
2019-05-18T16:23:06.279Z,28.50
2019-05-18T16:25:35.987Z,28.20
2019-05-18T16:28:05.723Z,27.90
2019-05-18T16:30:35.397Z,27.50
2019-05-18T16:33:05.121Z,27.20
2019-05-18T16:35:34.734Z,26.80
2019-05-18T16:38:04.314Z,26.50
2019-05-18T16:40:33.981Z,26.20
2019-05-18T16:43:03.621Z,25.90
2019-05-18T16:45:33.289Z,25.70
2019-05-18T16:48:03.735Z,25.50
2019-05-18T16:50:33.337Z,25.30
2019-05-18T16:53:03.146Z,25.10
2019-05-18T16:55:33.011Z,25.00
2019-05-18T16:58:02.667Z,24.80
2019-05-18T17:00:32.349Z,24.70
2019-05-18T17:03:02.118Z,24.60
2019-05-18T17:05:35.873Z,24.50
2019-05-18T17:08:10.152Z,24.40
2019-05-18T17:10:39.766Z,24.30
2019-05-18T17:13:09.647Z,24.20
2019-05-18T17:15:39.399Z,24.10
2019-05-18T17:18:09.055Z,24.10
2019-05-18T17:20:45.788Z,24.00
2019-05-18T17:23:12.828Z,24.00
2019-05-18T17:25:42.426Z,23.90
2019-05-18T17:28:12.136Z,23.80
2019-05-18T17:30:42.847Z,23.70
2019-05-18T17:33:12.618Z,23.70
2019-05-18T17:35:42.397Z,23.60
2019-05-18T17:38:12.013Z,23.60
2019-05-18T17:40:41.676Z,23.70
2019-05-18T17:43:11.311Z,23.70
2019-05-18T17:45:40.957Z,23.70
2019-05-18T17:48:10.732Z,23.60
2019-05-18T17:50:40.377Z,23.50
2019-05-18T17:53:10.055Z,23.40
2019-05-18T17:55:39.692Z,23.30
2019-05-18T17:58:09.636Z,23.20
2019-05-18T18:00:49.709Z,23.00
2019-05-18T18:07:58.687Z,22.80
2019-05-18T18:15:14.331Z,22.50
2019-05-18T18:18:34.863Z,22.30
2019-05-18T18:25:37.214Z,22.10
2019-05-18T18:28:43.467Z,22.00
2019-05-18T18:31:47.307Z,21.90
2019-05-18T18:34:25.306Z,21.80
2019-05-18T18:37:02.950Z,21.70
2019-05-18T18:39:55.454Z,21.70
2019-05-18T18:46:26.321Z,21.50
2019-05-18T18:49:09.955Z,21.30
2019-05-18T19:10:24.181Z,20.60
2019-05-18T19:20:45.954Z,20.40
2019-05-18T19:23:56.266Z,20.40
2019-05-18T19:31:13.719Z,20.20
2019-05-18T19:37:33.906Z,20.10
2019-05-18T19:44:30.113Z,20.00
2019-05-18T19:49:20.925Z,20.00
2019-05-18T19:54:33.195Z,19.90
2019-05-18T20:35:37.895Z,19.20
2019-05-18T20:38:19.832Z,19.10
2019-05-18T20:41:09.473Z,19.10
2019-05-18T20:47:48.751Z,19.00
2019-05-18T20:50:32.787Z,19.00
2019-05-18T20:53:22.020Z,18.90
2019-05-18T20:56:24.681Z,18.90
2019-05-18T21:13:08.491Z,18.70
2019-05-18T21:18:00.180Z,18.60
2019-05-18T21:27:23.894Z,18.60
2019-05-18T21:29:06.660Z,18.50
2019-05-18T21:33:07.004Z,18.50
2019-05-18T21:51:20.188Z,18.30
2019-05-18T21:55:36.065Z,18.20
2019-05-18T21:59:11.065Z,18.20
2019-05-18T22:00:36.621Z,18.20
2019-05-18T22:07:09.319Z,18.10
2019-05-18T22:10:24.440Z,18.10
2019-05-18T22:16:43.675Z,18.00
2019-05-18T22:20:48.312Z,17.90
2019-05-18T22:28:04.136Z,17.80
2019-05-18T22:37:11.042Z,17.70
2019-05-18T22:58:26.841Z,17.50
2019-05-18T23:01:31.228Z,17.50
2019-05-18T23:04:11.767Z,17.40
2019-05-18T23:06:50.120Z,17.50
2019-05-18T23:10:15.730Z,17.50
2019-05-18T23:13:15.443Z,17.40
2019-05-18T23:18:34.231Z,17.40
2019-05-18T23:24:52.461Z,17.40
2019-05-18T23:27:48.977Z,17.40
2019-05-18T23:35:19.697Z,17.40
2019-05-18T23:38:01.897Z,17.30
2019-05-18T23:40:36.732Z,17.30
2019-05-18T23:43:47.378Z,17.30
2019-05-18T23:46:37.974Z,17.30
2019-05-18T23:49:10.896Z,17.30
2019-05-18T23:52:07.017Z,17.20
2019-05-18T23:56:02.926Z,17.20
